Time;durP1;ratioP1;P1;durP2;ratioP2;P2;SDS_P1;SDS_P2;PMS_P1;PMS_P2;Temp;Humidity;BMP_temperature;BMP_pressure;BME280_temperature;BME280_humidity;BME280_pressure;Samples;Min_cycle;Max_cycle;Signal;HPM_P1;HPM_P2
2023/09/29 00:00:21;;;;;;;13.00;12.50;;;18.90;99.90;;;;;;5015676;28;20453;-83
2023/09/29 00:02:53;;;;;;;13.60;12.80;;;18.90;99.90;;;;;;5013558;28;21319;-83
2023/09/29 00:05:21;;;;;;;12.80;12.20;;;18.90;99.90;;;;;;5015715;28;20542;-83
2023/09/29 00:07:51;;;;;;;12.83;12.20;;;19.10;99.90;;;;;;5013054;28;20462;-84
2023/09/29 00:10:21;;;;;;;12.80;12.30;;;19.00;99.90;;;;;;5010147;28;20461;-80
2023/09/29 00:12:51;;;;;;;13.57;12.87;;;19.20;99.90;;;;;;5007791;28;20513;-80
2023/09/29 00:15:21;;;;;;;12.97;12.20;;;19.20;99.90;;;;;;5008648;28;20482;-80
2023/09/29 00:17:50;;;;;;;12.73;12.10;;;19.30;99.90;;;;;;5010018;28;20453;-83
2023/09/29 00:20:23;;;;;;;12.82;12.23;;;19.30;99.90;;;;;;5013578;28;20443;-80
2023/09/29 00:22:53;;;;;;;12.37;11.87;;;19.30;99.90;;;;;;5008846;28;20205;-81
2023/09/29 00:25:22;;;;;;;12.95;12.35;;;19.40;99.90;;;;;;5007885;28;20458;-80
2023/09/29 00:27:51;;;;;;;12.37;11.90;;;19.40;99.90;;;;;;5006753;28;20210;-82
2023/09/29 00:30:20;;;;;;;12.60;12.10;;;19.50;99.90;;;;;;5010485;28;20468;-80
2023/09/29 00:32:50;;;;;;;12.20;11.70;;;19.30;99.90;;;;;;5008846;28;20521;-79
2023/09/29 00:35:24;;;;;;;13.10;12.50;;;19.20;99.90;;;;;;5008271;28;20819;-79
2023/09/29 00:37:54;;;;;;;13.13;12.63;;;19.10;99.90;;;;;;5005854;28;21189;-80
2023/09/29 00:40:22;;;;;;;14.13;12.37;;;19.00;99.90;;;;;;5007583;28;20488;-81
2023/09/29 00:42:52;;;;;;;13.57;12.97;;;19.00;99.90;;;;;;5006419;28;20455;-81
2023/09/29 00:45:23;;;;;;;12.23;11.73;;;18.90;99.90;;;;;;5005890;28;20463;-80
2023/09/29 00:47:54;;;;;;;12.07;11.67;;;18.90;99.90;;;;;;5008547;28;20568;-80
2023/09/29 00:50:26;;;;;;;12.67;12.07;;;18.90;99.90;;;;;;5007511;28;20453;-79
2023/09/29 00:52:58;;;;;;;12.57;11.97;;;18.90;99.90;;;;;;5006485;28;20478;-81
2023/09/29 00:55:28;;;;;;;12.70;12.20;;;18.90;99.90;;;;;;5008810;28;20476;-78
2023/09/29 00:58:00;;;;;;;12.90;12.33;;;18.80;99.90;;;;;;5005128;28;20458;-80
2023/09/29 01:00:37;;;;;;;12.83;12.17;;;18.70;99.90;;;;;;5008693;28;20452;-82
2023/09/29 01:03:08;;;;;;;12.00;11.60;;;18.70;99.90;;;;;;5005891;28;20545;-80
2023/09/29 01:05:38;;;;;;;12.77;12.17;;;18.60;99.90;;;;;;5006835;28;20572;-81
2023/09/29 01:08:09;;;;;;;13.20;12.33;;;18.60;99.90;;;;;;5007081;28;20456;-80
2023/09/29 01:10:38;;;;;;;12.27;11.80;;;18.50;99.90;;;;;;5007209;28;20492;-80
2023/09/29 01:13:08;;;;;;;12.67;12.13;;;18.50;99.90;;;;;;5006127;28;21316;-81
2023/09/29 01:15:39;;;;;;;11.93;11.53;;;18.40;99.90;;;;;;5005423;28;20501;-81
2023/09/29 01:18:09;;;;;;;12.83;12.27;;;18.50;99.90;;;;;;5003932;28;20971;-81
2023/09/29 01:20:40;;;;;;;13.07;12.47;;;18.50;99.90;;;;;;5003939;28;20447;-78
2023/09/29 01:23:10;;;;;;;12.70;12.20;;;18.50;99.90;;;;;;5008482;28;20491;-80
2023/09/29 01:25:39;;;;;;;12.67;12.17;;;18.40;99.90;;;;;;5005654;28;20510;-81
2023/09/29 01:28:12;;;;;;;12.30;11.70;;;18.40;99.90;;;;;;5005557;28;20476;-82
2023/09/29 01:30:43;;;;;;;12.33;11.83;;;18.40;99.90;;;;;;5002168;28;20461;-79
2023/09/29 01:33:12;;;;;;;12.40;11.90;;;18.40;99.90;;;;;;5004011;28;20856;-81
2023/09/29 01:35:43;;;;;;;13.20;12.50;;;18.40;99.90;;;;;;5002798;28;20454;-80
2023/09/29 01:38:12;;;;;;;12.90;12.30;;;18.40;99.90;;;;;;5003017;28;20461;-80
2023/09/29 01:40:44;;;;;;;12.30;11.80;;;18.30;99.90;;;;;;5007982;28;20462;-79
2023/09/29 01:43:13;;;;;;;13.17;12.37;;;18.30;99.90;;;;;;5008655;28;20499;-82
2023/09/29 01:45:41;;;;;;;12.80;12.20;;;18.30;99.90;;;;;;5007624;28;20531;-81
2023/09/29 01:48:11;;;;;;;12.60;12.00;;;18.30;99.90;;;;;;5006527;28;20556;-81
2023/09/29 01:50:40;;;;;;;12.90;12.30;;;18.30;99.90;;;;;;5000979;28;20446;-80
2023/09/29 01:53:11;;;;;;;11.97;11.50;;;18.30;99.90;;;;;;5006557;28;20486;-82
2023/09/29 01:55:40;;;;;;;12.90;12.30;;;18.40;99.90;;;;;;5007555;28;20527;-81
2023/09/29 01:58:09;;;;;;;12.23;11.73;;;18.40;99.90;;;;;;5004109;28;20458;-81
2023/09/29 02:00:38;;;;;;;12.33;11.83;;;18.40;99.90;;;;;;5006496;28;20494;-82
2023/09/29 02:03:07;;;;;;;12.20;11.70;;;18.50;99.90;;;;;;5003388;28;20963;-81
2023/09/29 02:05:36;;;;;;;13.23;12.40;;;18.50;99.90;;;;;;5013686;28;20495;-84
2023/09/29 02:08:06;;;;;;;12.50;11.70;;;18.60;99.90;;;;;;5018839;28;20461;-81
2023/09/29 02:10:35;;;;;;;12.13;11.53;;;18.80;99.90;;;;;;5013979;28;20447;-84
2023/09/29 02:13:04;;;;;;;12.17;11.70;;;18.90;99.90;;;;;;5013841;28;20485;-85
2023/09/29 02:15:35;;;;;;;12.93;12.33;;;19.00;99.90;;;;;;5012969;28;20485;-82
2023/09/29 02:18:04;;;;;;;13.60;12.90;;;19.10;99.90;;;;;;5015736;28;20889;-82
2023/09/29 02:20:35;;;;;;;12.43;11.87;;;19.10;99.90;;;;;;5013616;28;20540;-82
2023/09/29 02:23:05;;;;;;;12.70;12.10;;;19.10;99.90;;;;;;5014287;28;20951;-81
2023/09/29 02:25:33;;;;;;;12.80;12.10;;;19.10;99.90;;;;;;5013783;28;20473;-83
2023/09/29 02:28:01;;;;;;;13.67;12.97;;;19.10;99.90;;;;;;5014447;28;20452;-81
2023/09/29 02:30:30;;;;;;;13.10;12.53;;;19.10;99.90;;;;;;5014638;28;20489;-80
2023/09/29 02:33:00;;;;;;;12.50;12.00;;;19.10;99.90;;;;;;5010983;28;20477;-81
2023/09/29 02:35:29;;;;;;;13.03;12.30;;;19.20;99.90;;;;;;5014226;28;20481;-81
2023/09/29 02:37:57;;;;;;;12.50;12.00;;;19.20;99.90;;;;;;5014210;28;20469;-80
2023/09/29 02:40:25;;;;;;;12.70;12.10;;;19.20;99.90;;;;;;5010791;28;20458;-83
2023/09/29 02:42:53;;;;;;;12.73;12.03;;;19.30;99.90;;;;;;5015022;28;20462;-81
2023/09/29 02:45:23;;;;;;;13.60;12.90;;;19.20;99.90;;;;;;5011858;28;20535;-82
2023/09/29 02:47:52;;;;;;;12.70;12.10;;;19.20;99.90;;;;;;5011519;28;20469;-81
2023/09/29 02:50:24;;;;;;;13.10;12.47;;;19.20;99.90;;;;;;5013643;28;20497;-82
2023/09/29 02:52:53;;;;;;;12.63;12.03;;;19.30;99.90;;;;;;5010734;28;20477;-82
2023/09/29 02:55:22;;;;;;;12.90;12.33;;;19.30;99.90;;;;;;5013376;28;20539;-83
2023/09/29 02:57:51;;;;;;;12.87;12.37;;;19.30;99.90;;;;;;5013601;28;20451;-82
2023/09/29 03:00:21;;;;;;;13.00;12.50;;;19.40;99.90;;;;;;5017223;28;20466;-82
2023/09/29 03:02:51;;;;;;;14.10;13.30;;;19.40;99.90;;;;;;5013170;28;20529;-82
2023/09/29 03:05:22;;;;;;;13.67;13.00;;;19.40;99.90;;;;;;5015074;28;20470;-85
2023/09/29 03:07:51;;;;;;;14.13;13.40;;;19.40;99.90;;;;;;5007797;28;20447;-85
2023/09/29 03:10:25;;;;;;;13.80;13.10;;;19.40;99.90;;;;;;5011408;28;20519;-82
2023/09/29 03:12:56;;;;;;;13.50;12.80;;;19.30;99.90;;;;;;5011732;28;20859;-82
2023/09/29 03:15:26;;;;;;;13.10;12.50;;;19.30;99.90;;;;;;5003881;28;20571;-79
2023/09/29 03:17:55;;;;;;;14.00;13.40;;;19.40;99.90;;;;;;5006042;28;20516;-80
2023/09/29 03:20:28;;;;;;;13.90;12.83;;;19.40;99.90;;;;;;5010824;28;20467;-82
2023/09/29 03:23:04;;;;;;;13.47;12.60;;;19.30;99.90;;;;;;5010361;28;20451;-78
2023/09/29 03:25:32;;;;;;;13.37;12.67;;;19.30;99.90;;;;;;5010367;28;21227;-81
2023/09/29 03:28:01;;;;;;;14.53;13.67;;;19.30;99.90;;;;;;5015506;28;20484;-86
2023/09/29 03:30:31;;;;;;;13.73;12.93;;;19.40;99.90;;;;;;5014378;28;20485;-80
2023/09/29 03:32:59;;;;;;;14.67;13.80;;;19.30;99.90;;;;;;5009960;28;20472;-80
2023/09/29 03:35:29;;;;;;;14.23;13.53;;;19.40;99.90;;;;;;5009829;28;20488;-81
2023/09/29 03:37:57;;;;;;;14.00;13.40;;;19.40;99.90;;;;;;5009198;28;20543;-81
2023/09/29 03:40:26;;;;;;;13.47;12.87;;;19.40;99.90;;;;;;5003938;28;20460;-79
2023/09/29 03:42:55;;;;;;;14.13;13.43;;;19.30;99.90;;;;;;5011143;28;20544;-82
2023/09/29 03:45:25;;;;;;;13.80;13.17;;;19.30;99.90;;;;;;5010122;28;20999;-82
2023/09/29 03:47:53;;;;;;;13.17;12.37;;;19.20;99.90;;;;;;5009427;28;20458;-82
2023/09/29 03:50:21;;;;;;;13.20;12.60;;;19.10;99.90;;;;;;5008641;28;20450;-82
2023/09/29 03:52:51;;;;;;;13.03;12.53;;;19.10;99.90;;;;;;5009839;28;20465;-85
2023/09/29 03:55:19;;;;;;;13.73;13.00;;;19.10;99.90;;;;;;5007834;28;20489;-82
2023/09/29 03:57:48;;;;;;;13.00;12.50;;;19.20;99.90;;;;;;5011297;28;20516;-82
2023/09/29 04:00:18;;;;;;;13.27;12.67;;;19.20;99.90;;;;;;5013090;28;20458;-80
2023/09/29 04:02:49;;;;;;;12.83;12.33;;;19.10;99.90;;;;;;5008505;28;20592;-81
2023/09/29 04:05:19;;;;;;;13.47;12.47;;;19.00;99.90;;;;;;5012413;28;20477;-82
2023/09/29 04:07:47;;;;;;;12.80;12.03;;;18.90;99.90;;;;;;5022752;28;20448;-84
2023/09/29 04:10:17;;;;;;;12.30;11.80;;;18.90;99.90;;;;;;5018990;28;20450;-81
2023/09/29 04:12:46;;;;;;;12.97;12.30;;;18.80;99.90;;;;;;5011822;28;20453;-80
2023/09/29 04:15:15;;;;;;;13.00;12.30;;;18.70;99.90;;;;;;5011906;28;20485;-84
2023/09/29 04:17:44;;;;;;;12.40;11.90;;;18.70;99.90;;;;;;5016476;28;20500;-82
2023/09/29 04:20:13;;;;;;;12.83;12.30;;;18.70;99.90;;;;;;5014468;28;20453;-84
2023/09/29 04:22:41;;;;;;;12.83;12.23;;;18.70;99.90;;;;;;5015477;28;20544;-81
2023/09/29 04:25:10;;;;;;;12.90;12.40;;;18.70;99.90;;;;;;5013364;28;20481;-82
2023/09/29 04:27:41;;;;;;;13.60;12.87;;;18.70;99.90;;;;;;5011607;28;20519;-84
2023/09/29 04:30:12;;;;;;;13.53;12.83;;;18.60;99.90;;;;;;5009573;28;20458;-82
2023/09/29 04:32:41;;;;;;;13.60;12.70;;;18.70;99.90;;;;;;5011705;28;20449;-84
2023/09/29 04:35:10;;;;;;;14.00;13.20;;;18.60;99.90;;;;;;5017227;28;20532;-82
2023/09/29 04:37:38;;;;;;;14.10;13.50;;;18.60;99.90;;;;;;5019212;28;20481;-83
2023/09/29 04:40:08;;;;;;;13.10;12.40;;;18.60;99.90;;;;;;5017395;28;20454;-81
2023/09/29 04:42:37;;;;;;;12.77;12.17;;;18.60;99.90;;;;;;5015371;28;20453;-80
2023/09/29 04:45:08;;;;;;;13.93;13.10;;;18.50;99.90;;;;;;5007974;28;20469;-79
2023/09/29 04:47:36;;;;;;;13.57;12.90;;;18.50;99.90;;;;;;5005776;28;20462;-79
2023/09/29 04:50:08;;;;;;;13.30;12.57;;;18.60;99.90;;;;;;5007093;28;20523;-79
2023/09/29 04:52:37;;;;;;;13.53;12.87;;;18.50;99.90;;;;;;5010126;28;20462;-80
2023/09/29 04:55:05;;;;;;;14.33;13.37;;;18.60;99.90;;;;;;5007837;28;21285;-80
2023/09/29 04:57:33;;;;;;;14.80;13.77;;;18.60;99.90;;;;;;5006489;28;20460;-80
2023/09/29 05:00:02;;;;;;;14.03;13.43;;;18.70;99.90;;;;;;5006881;28;20553;-81
2023/09/29 05:02:32;;;;;;;13.47;12.87;;;18.80;99.90;;;;;;5006478;28;21035;-79
2023/09/29 05:05:01;;;;;;;13.87;13.27;;;18.80;99.90;;;;;;5005771;28;20457;-79
2023/09/29 05:07:29;;;;;;;14.30;13.60;;;18.80;99.90;;;;;;5007494;28;20449;-80
2023/09/29 05:09:57;;;;;;;13.60;13.10;;;18.90;99.90;;;;;;5004187;28;20533;-80
2023/09/29 05:12:25;;;;;;;14.13;13.40;;;18.90;99.90;;;;;;5005372;28;20955;-79
2023/09/29 05:14:53;;;;;;;13.70;12.90;;;18.90;99.90;;;;;;5001247;28;20490;-81
2023/09/29 05:17:21;;;;;;;13.20;12.70;;;19.00;99.90;;;;;;5006984;28;20454;-80
2023/09/29 05:19:53;;;;;;;13.70;12.90;;;19.10;99.90;;;;;;5009190;28;20453;-79
2023/09/29 05:22:21;;;;;;;13.30;12.77;;;19.20;99.90;;;;;;5004699;28;20580;-80
2023/09/29 05:24:49;;;;;;;13.80;13.17;;;19.20;99.90;;;;;;5010372;28;20469;-79
2023/09/29 05:27:18;;;;;;;13.70;12.93;;;19.20;99.90;;;;;;5007003;28;20458;-80
2023/09/29 05:29:46;;;;;;;14.23;13.73;;;19.30;99.90;;;;;;5007181;28;20517;-79
2023/09/29 05:32:14;;;;;;;14.93;14.13;;;19.30;99.90;;;;;;5007805;28;20450;-77
2023/09/29 05:34:42;;;;;;;14.47;13.70;;;19.30;99.90;;;;;;5006843;28;20577;-81
2023/09/29 05:37:12;;;;;;;14.77;13.93;;;19.30;99.90;;;;;;5007304;28;20461;-81
2023/09/29 05:39:41;;;;;;;14.00;13.10;;;19.20;99.90;;;;;;5007480;28;20456;-80
2023/09/29 05:42:09;;;;;;;13.90;13.30;;;19.20;99.90;;;;;;5008097;28;20460;-80
2023/09/29 05:44:37;;;;;;;14.60;13.97;;;19.20;99.90;;;;;;5008648;28;20480;-81
2023/09/29 05:47:05;;;;;;;14.57;13.80;;;19.30;99.90;;;;;;5004795;28;20493;-80
2023/09/29 05:49:34;;;;;;;13.60;13.10;;;19.30;99.90;;;;;;5010187;28;20965;-79
2023/09/29 05:52:02;;;;;;;14.50;13.80;;;19.40;99.90;;;;;;5011963;28;20453;-80
2023/09/29 05:54:32;;;;;;;13.70;13.03;;;19.40;99.90;;;;;;5009654;28;20505;-80
2023/09/29 05:57:00;;;;;;;14.30;13.50;;;19.50;99.90;;;;;;5005889;28;20512;-79
2023/09/29 05:59:30;;;;;;;13.93;13.13;;;19.60;99.90;;;;;;5008481;28;20464;-80
2023/09/29 06:01:58;;;;;;;13.63;13.10;;;19.60;99.90;;;;;;5010003;28;20464;-79
2023/09/29 06:04:45;;;;;;;15.67;14.67;;;19.60;99.90;;;;;;5005337;28;20568;-78
2023/09/29 06:07:14;;;;;;;13.53;12.93;;;19.60;99.90;;;;;;5006752;28;20453;-79
2023/09/29 06:09:43;;;;;;;14.00;13.33;;;19.60;99.90;;;;;;5010071;28;20454;-80
2023/09/29 06:12:12;;;;;;;14.20;13.60;;;19.70;99.90;;;;;;5008348;28;20450;-82
2023/09/29 06:14:40;;;;;;;13.83;13.07;;;19.70;99.90;;;;;;5007048;28;20489;-81
2023/09/29 06:17:09;;;;;;;13.27;12.67;;;19.70;99.90;;;;;;5010360;28;20465;-82
2023/09/29 06:19:37;;;;;;;13.57;12.90;;;19.80;99.90;;;;;;5005012;28;20454;-79
2023/09/29 06:22:05;;;;;;;13.57;12.87;;;19.80;99.90;;;;;;5006767;28;20792;-82
2023/09/29 06:24:33;;;;;;;13.33;12.60;;;19.90;99.90;;;;;;5006776;28;21206;-81
2023/09/29 06:27:03;;;;;;;13.50;12.90;;;20.00;99.90;;;;;;5005783;28;20532;-82
2023/09/29 06:29:32;;;;;;;13.90;13.00;;;20.00;99.90;;;;;;5004293;28;20464;-79
2023/09/29 06:32:00;;;;;;;13.40;12.80;;;20.10;99.90;;;;;;5021137;28;20893;-82
2023/09/29 06:34:28;;;;;;;13.50;12.93;;;20.10;99.90;;;;;;5006183;28;20484;-81
2023/09/29 06:36:56;;;;;;;13.50;13.00;;;20.20;99.90;;;;;;5005509;28;20571;-82
2023/09/29 06:39:25;;;;;;;13.80;13.20;;;20.20;99.90;;;;;;5006070;28;21273;-80
2023/09/29 06:41:53;;;;;;;13.67;12.70;;;20.20;99.90;;;;;;5007901;28;20896;-85
2023/09/29 06:44:23;;;;;;;13.27;12.53;;;20.20;99.90;;;;;;5005596;28;20524;-79
2023/09/29 06:46:51;;;;;;;13.63;12.87;;;20.20;99.90;;;;;;5007000;28;20462;-81
2023/09/29 06:49:19;;;;;;;12.97;12.33;;;20.20;99.90;;;;;;5007447;28;20462;-81
2023/09/29 06:51:48;;;;;;;13.90;13.20;;;20.20;99.90;;;;;;5011227;28;20485;-80
2023/09/29 06:54:16;;;;;;;13.67;12.80;;;20.30;99.90;;;;;;5009349;28;20552;-82
2023/09/29 06:56:46;;;;;;;14.10;13.50;;;20.30;99.90;;;;;;5009719;28;20477;-79
2023/09/29 06:59:14;;;;;;;15.10;13.67;;;20.30;99.90;;;;;;5005784;28;20533;-79
2023/09/29 07:01:44;;;;;;;13.73;12.90;;;20.30;99.90;;;;;;5006696;28;20466;-79
2023/09/29 07:04:12;;;;;;;13.53;12.83;;;20.40;99.90;;;;;;5003870;28;20484;-80
2023/09/29 07:06:40;;;;;;;13.90;13.30;;;20.40;99.90;;;;;;5008176;28;20454;-78
2023/09/29 07:09:09;;;;;;;14.10;13.30;;;20.40;99.90;;;;;;5003792;28;20546;-80
2023/09/29 07:11:40;;;;;;;12.93;12.53;;;20.40;99.90;;;;;;5009099;28;20447;-80
2023/09/29 07:14:08;;;;;;;14.40;13.60;;;20.40;99.90;;;;;;5012605;28;21340;-80
2023/09/29 07:16:38;;;;;;;14.00;13.40;;;20.40;99.90;;;;;;5008092;28;20451;-81
2023/09/29 07:19:08;;;;;;;13.07;12.50;;;20.40;99.90;;;;;;5007084;28;20203;-80
2023/09/29 07:21:36;;;;;;;12.90;12.40;;;20.50;99.90;;;;;;5009442;28;20465;-81
2023/09/29 07:24:05;;;;;;;12.93;12.33;;;20.50;99.90;;;;;;5012976;28;20517;-82
2023/09/29 07:26:33;;;;;;;12.90;12.30;;;20.50;99.90;;;;;;5012586;28;20454;-82
2023/09/29 07:29:04;;;;;;;12.63;11.93;;;20.60;99.90;;;;;;5010008;28;20529;-80
2023/09/29 07:32:29;;;;;;;13.03;12.33;;;20.60;99.90;;;;;;5008285;28;21017;-83
2023/09/29 07:38:32;;;;;;;13.57;12.87;;;20.80;99.90;;;;;;5025898;28;20465;-84
2023/09/29 07:49:42;;;;;;;12.53;12.03;;;20.90;99.90;;;;;;5013228;28;20545;-84
2023/09/29 07:52:10;;;;;;;13.23;12.73;;;20.90;99.90;;;;;;5015181;28;20442;-80
2023/09/29 07:54:40;;;;;;;12.97;12.37;;;21.10;99.90;;;;;;5015398;28;21054;-81
2023/09/29 07:57:08;;;;;;;13.60;13.00;;;21.10;99.90;;;;;;5015137;28;20469;-80
2023/09/29 07:59:36;;;;;;;13.93;13.37;;;21.20;99.90;;;;;;5012480;28;20462;-81
2023/09/29 08:02:07;;;;;;;14.50;13.90;;;21.50;99.90;;;;;;5015622;28;20445;-80
2023/09/29 08:04:36;;;;;;;14.30;13.50;;;22.10;99.90;;;;;;5014781;28;20933;-82
2023/09/29 08:07:04;;;;;;;14.57;13.90;;;22.50;99.90;;;;;;5013989;28;20454;-82
2023/09/29 08:09:36;;;;;;;13.40;12.90;;;22.90;99.90;;;;;;5016459;28;20436;-81
2023/09/29 08:12:27;;;;;;;14.30;13.70;;;23.20;99.90;;;;;;5015249;28;20457;-82
2023/09/29 08:17:41;;;;;;;14.00;13.30;;;23.20;99.90;;;;;;5025778;28;20917;-86
2023/09/29 08:20:35;;;;;;;13.80;13.20;;;23.40;99.90;;;;;;5027638;28;20603;-83
2023/09/29 08:29:38;;;;;;;13.27;12.77;;;24.30;99.90;;;;;;4895042;29;20531;-80
2023/09/29 08:32:08;;;;;;;13.33;12.80;;;24.10;99.90;;;;;;4894262;29;20463;-83
2023/09/29 08:34:36;;;;;;;13.23;12.73;;;24.40;99.90;;;;;;4908479;29;20571;-85
2023/09/29 08:37:04;;;;;;;13.23;12.70;;;24.70;99.90;;;;;;4892694;29;20479;-82
2023/09/29 08:39:32;;;;;;;14.20;13.57;;;25.50;99.90;;;;;;4891855;29;20561;-85
2023/09/29 08:42:05;;;;;;;14.07;13.27;;;25.40;99.90;;;;;;4896242;29;20560;-82
2023/09/29 08:44:34;;;;;;;13.93;13.43;;;25.50;99.90;;;;;;4899821;29;21035;-84
2023/09/29 08:47:04;;;;;;;14.80;13.93;;;26.20;99.90;;;;;;4902780;29;20507;-82
2023/09/29 08:49:35;;;;;;;14.17;13.67;;;26.90;99.90;;;;;;4899955;29;20464;-84
2023/09/29 08:52:19;;;;;;;14.83;14.10;;;27.20;99.90;;;;;;4900737;29;20464;-83
2023/09/29 08:54:49;;;;;;;14.60;13.90;;;27.50;99.90;;;;;;4895514;29;20492;-85
2023/09/29 08:57:20;;;;;;;14.00;13.40;;;27.80;99.90;;;;;;4897561;29;20476;-82
2023/09/29 08:59:50;;;;;;;13.77;13.27;;;28.10;99.90;;;;;;4894483;29;20467;-81
2023/09/29 09:02:32;;;;;;;12.33;11.63;;;28.00;99.90;;;;;;4897594;29;20486;-80
2023/09/29 09:05:14;;;;;;;12.03;11.53;;;28.10;99.90;;;;;;4909766;29;20484;-82
2023/09/29 09:07:46;;;;;;;12.70;12.20;;;28.10;99.90;;;;;;4898343;29;20455;-80
2023/09/29 09:10:14;;;;;;;11.70;11.10;;;27.50;99.90;;;;;;4896282;29;21178;-83
2023/09/29 09:13:00;;;;;;;11.60;11.00;;;27.50;99.90;;;;;;4909796;29;20456;-80
2023/09/29 09:15:29;;;;;;;12.47;11.97;;;27.70;99.90;;;;;;4896279;29;21083;-84
2023/09/29 09:17:59;;;;;;;12.17;11.77;;;27.80;99.90;;;;;;4890646;29;20514;-83
2023/09/29 09:20:29;;;;;;;12.87;12.37;;;28.00;99.90;;;;;;4896016;29;20477;-83
2023/09/29 09:22:59;;;;;;;12.10;11.70;;;27.90;99.90;;;;;;4891077;29;20457;-82
2023/09/29 09:25:37;;;;;;;12.20;11.60;;;27.30;99.90;;;;;;4890507;29;20496;-83
2023/09/29 09:28:07;;;;;;;12.20;11.60;;;27.40;99.90;;;;;;4893036;29;20472;-82
2023/09/29 09:30:37;;;;;;;12.47;11.87;;;28.20;99.90;;;;;;4909588;29;20453;-80
2023/09/29 09:33:06;;;;;;;12.00;11.50;;;27.90;99.90;;;;;;4892785;29;20526;-81
2023/09/29 09:35:38;;;;;;;12.50;11.90;;;27.10;99.90;;;;;;4895216;29;20571;-81
2023/09/29 09:38:07;;;;;;;12.57;12.10;;;26.60;99.90;;;;;;4887054;29;20479;-80
2023/09/29 09:40:36;;;;;;;13.17;12.57;;;26.40;99.90;;;;;;4891669;29;20491;-82
2023/09/29 09:43:08;;;;;;;12.90;12.40;;;26.10;99.90;;;;;;4890970;29;20465;-81
2023/09/29 09:45:39;;;;;;;12.90;12.30;;;25.90;99.90;;;;;;4892222;29;21056;-79
2023/09/29 09:48:22;;;;;;;12.40;11.90;;;25.60;99.90;;;;;;4891544;29;20458;-81
2023/09/29 09:50:57;;;;;;;12.43;11.80;;;25.40;99.90;;;;;;4890607;29;20459;-83
2023/09/29 09:53:31;;;;;;;12.87;12.27;;;25.40;99.90;;;;;;4891196;29;20469;-80
2023/09/29 09:56:05;;;;;;;13.17;12.67;;;25.40;99.90;;;;;;4890456;29;20462;-81
2023/09/29 09:58:33;;;;;;;12.73;12.33;;;25.40;99.90;;;;;;4892081;29;21004;-82
2023/09/29 10:01:03;;;;;;;12.47;12.07;;;25.40;99.90;;;;;;4889908;29;20502;-80
2023/09/29 10:03:33;;;;;;;13.00;12.50;;;25.40;99.90;;;;;;4888995;29;20461;-81
2023/09/29 10:06:05;;;;;;;13.57;13.03;;;25.40;99.90;;;;;;4888378;29;20565;-82
2023/09/29 10:08:34;;;;;;;13.43;12.97;;;25.40;99.90;;;;;;4888353;29;20467;-82
2023/09/29 10:11:13;;;;;;;13.23;12.67;;;25.50;99.90;;;;;;4888505;29;20456;-80
2023/09/29 10:13:44;;;;;;;13.87;13.20;;;25.70;99.90;;;;;;4888429;29;21069;-82
2023/09/29 10:16:22;;;;;;;14.10;13.40;;;26.00;99.90;;;;;;4894400;29;20551;-86
2023/09/29 10:18:58;;;;;;;15.53;14.93;;;26.20;99.90;;;;;;4891104;29;20459;-81
2023/09/29 10:21:33;;;;;;;16.40;15.70;;;26.40;99.90;;;;;;4888225;29;20470;-83
2023/09/29 10:24:05;;;;;;;14.77;14.00;;;26.60;99.90;;;;;;4889262;29;20492;-82
2023/09/29 10:26:43;;;;;;;14.50;13.80;;;26.80;99.90;;;;;;4889912;29;21031;-80
2023/09/29 10:29:19;;;;;;;13.87;13.20;;;27.00;99.90;;;;;;4892594;29;20483;-83
2023/09/29 10:31:49;;;;;;;13.80;13.30;;;27.20;99.90;;;;;;4890429;29;20475;-85
2023/09/29 10:34:21;;;;;;;13.70;13.20;;;27.30;99.90;;;;;;4890260;29;20516;-82
2023/09/29 10:36:56;;;;;;;13.43;13.03;;;27.50;99.90;;;;;;4890959;29;20467;-82
2023/09/29 10:39:26;;;;;;;14.63;14.03;;;27.70;99.90;;;;;;4895076;29;20500;-84
2023/09/29 10:41:59;;;;;;;13.93;13.23;;;27.90;99.90;;;;;;4892313;29;20460;-81
2023/09/29 10:44:28;;;;;;;14.10;13.60;;;28.00;99.90;;;;;;4891018;29;20499;-82
2023/09/29 10:46:56;;;;;;;14.73;14.23;;;28.10;99.90;;;;;;4890898;29;20482;-83
2023/09/29 10:49:32;;;;;;;13.97;13.47;;;28.30;99.90;;;;;;4893433;29;20490;-82
2023/09/29 10:52:02;;;;;;;14.00;13.40;;;28.50;99.90;;;;;;4915052;29;20458;-83
2023/09/29 10:54:30;;;;;;;13.20;12.70;;;28.60;99.90;;;;;;4897561;29;20501;-83
2023/09/29 10:56:59;;;;;;;13.67;13.13;;;28.70;99.90;;;;;;4899644;29;20487;-85
2023/09/29 10:59:27;;;;;;;13.57;12.97;;;28.80;99.90;;;;;;4891719;29;20462;-82
2023/09/29 11:01:55;;;;;;;13.73;13.23;;;28.90;99.90;;;;;;4893323;29;20464;-84
2023/09/29 11:04:25;;;;;;;14.03;13.43;;;28.90;99.90;;;;;;4887495;29;20483;-81
2023/09/29 11:06:53;;;;;;;13.93;13.33;;;29.30;99.90;;;;;;4890231;29;20497;-80
2023/09/29 11:09:28;;;;;;;14.37;13.67;;;29.70;99.90;;;;;;4890733;29;20504;-82
2023/09/29 11:11:57;;;;;;;14.23;13.53;;;30.30;99.90;;;;;;4885775;29;20681;-84
2023/09/29 11:14:36;;;;;;;14.03;13.33;;;30.30;99.90;;;;;;4890596;29;21329;-82
2023/09/29 11:17:04;;;;;;;13.50;12.70;;;30.30;99.90;;;;;;4891042;29;20984;-80
2023/09/29 11:19:33;;;;;;;13.03;12.57;;;29.80;99.90;;;;;;4892383;29;20814;-79
2023/09/29 11:22:04;;;;;;;14.17;13.57;;;29.10;99.90;;;;;;4893170;29;20561;-84
2023/09/29 11:24:40;;;;;;;13.57;12.97;;;28.80;99.90;;;;;;4891238;29;20580;-83
2023/09/29 11:27:15;;;;;;;14.30;13.80;;;28.50;99.90;;;;;;4887348;29;20988;-82
2023/09/29 11:30:09;;;;;;;14.10;13.60;;;28.30;99.90;;;;;;4880935;29;20573;-81
2023/09/29 11:32:52;;;;;;;13.80;13.20;;;28.00;99.90;;;;;;4889254;29;20458;-81
2023/09/29 11:35:21;;;;;;;14.27;13.67;;;28.00;99.90;;;;;;4888218;29;20229;-82
2023/09/29 11:37:58;;;;;;;13.40;12.90;;;27.90;99.90;;;;;;4888456;29;20568;-81
2023/09/29 11:40:42;;;;;;;14.20;13.50;;;27.90;99.90;;;;;;4904429;29;20841;-82
2023/09/29 11:43:21;;;;;;;13.37;12.97;;;27.80;99.90;;;;;;4891785;29;21022;-83
2023/09/29 11:46:04;;;;;;;13.70;13.30;;;27.70;99.90;;;;;;4889409;29;20485;-80
2023/09/29 11:48:32;;;;;;;14.03;13.53;;;27.60;99.90;;;;;;4889832;29;20468;-80
2023/09/29 11:51:00;;;;;;;14.00;13.50;;;27.50;99.90;;;;;;4890135;29;20829;-84
2023/09/29 11:53:34;;;;;;;13.97;13.57;;;27.50;99.90;;;;;;4890343;29;20456;-80
2023/09/29 11:56:18;;;;;;;13.73;13.20;;;27.50;99.90;;;;;;4892294;29;20544;-83
2023/09/29 11:58:46;;;;;;;13.07;12.73;;;27.50;99.90;;;;;;4898167;29;20506;-82
2023/09/29 12:01:14;;;;;;;15.00;13.90;;;27.50;99.90;;;;;;4890490;29;20461;-82
2023/09/29 12:03:45;;;;;;;13.93;13.43;;;27.50;99.90;;;;;;4902493;29;20481;-82
2023/09/29 12:06:17;;;;;;;14.70;14.00;;;27.40;99.90;;;;;;4890644;29;20995;-84
2023/09/29 12:08:55;;;;;;;14.50;13.70;;;27.40;99.90;;;;;;4891879;29;20524;-83
2023/09/29 12:11:31;;;;;;;13.37;12.87;;;27.50;99.90;;;;;;4888066;29;20460;-81
2023/09/29 12:14:03;;;;;;;13.90;13.30;;;27.40;99.90;;;;;;4888864;29;20528;-82
2023/09/29 12:16:35;;;;;;;13.50;13.00;;;27.40;99.90;;;;;;4891348;29;20468;-81
2023/09/29 12:19:03;;;;;;;13.20;12.63;;;27.50;99.90;;;;;;4889383;29;20580;-84
2023/09/29 12:21:32;;;;;;;13.60;13.10;;;27.40;99.90;;;;;;4893422;29;20459;-81
2023/09/29 12:24:00;;;;;;;14.17;13.57;;;27.50;99.90;;;;;;4888772;29;20217;-81
2023/09/29 12:26:29;;;;;;;13.50;13.00;;;27.60;99.90;;;;;;4892062;29;21009;-82
2023/09/29 12:29:05;;;;;;;13.70;13.00;;;27.50;99.90;;;;;;4890249;29;20520;-82
2023/09/29 12:31:33;;;;;;;13.33;12.67;;;27.50;99.90;;;;;;4891819;29;20454;-81
2023/09/29 12:34:07;;;;;;;14.13;13.43;;;27.50;99.90;;;;;;4890354;29;20484;-81
2023/09/29 12:37:02;;;;;;;13.67;13.10;;;27.50;99.90;;;;;;4891685;29;20468;-82
2023/09/29 12:40:05;;;;;;;14.13;13.60;;;27.50;99.90;;;;;;4891732;29;20483;-81
2023/09/29 12:43:01;;;;;;;13.20;12.63;;;27.60;99.90;;;;;;4892897;29;20457;-81
2023/09/29 12:46:00;;;;;;;13.80;13.30;;;27.50;99.90;;;;;;4893288;29;20481;-81
2023/09/29 12:49:02;;;;;;;13.70;13.20;;;27.50;99.90;;;;;;4894538;29;20493;-82
2023/09/29 12:51:36;;;;;;;13.47;12.97;;;27.50;99.90;;;;;;4908791;29;20461;-79
2023/09/29 12:54:42;;;;;;;13.53;13.03;;;27.60;99.90;;;;;;4892465;29;20478;-83
2023/09/29 12:57:10;;;;;;;13.37;12.83;;;27.50;99.90;;;;;;4891622;29;21075;-82
2023/09/29 12:59:41;;;;;;;13.07;12.53;;;27.50;99.90;;;;;;4892825;29;20488;-80
2023/09/29 13:02:31;;;;;;;13.90;13.30;;;27.50;99.90;;;;;;4894984;29;20469;-80
2023/09/29 13:05:22;;;;;;;12.77;12.00;;;27.50;99.90;;;;;;4893190;29;20557;-81
2023/09/29 13:07:51;;;;;;;12.67;12.17;;;27.50;99.90;;;;;;4895730;29;20476;-83
2023/09/29 13:10:21;;;;;;;11.73;11.33;;;27.40;99.90;;;;;;4895555;29;20457;-81